createdAt,value
2018-08-18T00:00:17.949Z,1.2
2018-08-18T00:02:17.740Z,5.3
2018-08-18T00:04:18.532Z,0.9
2018-08-18T00:06:18.181Z,0.8
2018-08-18T00:08:17.985Z,0.9
2018-08-18T00:10:18.250Z,2.9
2018-08-18T00:12:18.030Z,2.5
2018-08-18T00:14:17.840Z,0.7
2018-08-18T00:16:17.924Z,3.1
2018-08-18T00:18:17.805Z,1.3
2018-08-18T00:20:18.602Z,1.5
2018-08-18T00:22:18.373Z,3
2018-08-18T00:24:18.172Z,1.3
2018-08-18T00:26:18.699Z,1.5
2018-08-18T00:28:18.472Z,0.7
2018-08-18T00:30:18.285Z,2.6
2018-08-18T00:32:18.103Z,0.4
2018-08-18T00:34:18.046Z,1
2018-08-18T00:36:17.802Z,2.4
2018-08-18T00:38:18.576Z,5.2
2018-08-18T00:40:17.889Z,0.8
2018-08-18T00:42:18.678Z,0.9
2018-08-18T00:44:18.465Z,1
2018-08-18T00:46:18.566Z,1.1
2018-08-18T00:48:18.367Z,0.8
2018-08-18T00:50:18.144Z,2.6
2018-08-18T00:52:17.966Z,0.7
2018-08-18T00:54:17.759Z,1.8
2018-08-18T00:56:18.454Z,0.8
2018-08-18T00:58:18.288Z,2.1
2018-08-18T01:00:18.097Z,0.7
2018-08-18T01:02:17.866Z,5.2
2018-08-18T01:04:18.673Z,0.8
2018-08-18T01:06:17.760Z,0.8
2018-08-18T01:08:18.570Z,5.4
2018-08-18T01:10:17.918Z,9.8
2018-08-18T01:12:19.028Z,0.9
2018-08-18T01:14:18.134Z,2.4
2018-08-18T01:16:17.929Z,2.9
2018-08-18T01:18:17.821Z,1.7
2018-08-18T01:20:18.623Z,1.7
2018-08-18T01:22:18.423Z,0.9
2018-08-18T01:24:18.193Z,1.7
2018-08-18T01:26:18.271Z,1.2
2018-08-18T01:28:18.087Z,1.5
2018-08-18T01:30:17.871Z,2.2
2018-08-18T01:32:18.679Z,2.8
2018-08-18T01:34:18.454Z,0.9
2018-08-18T01:36:18.642Z,4.9
2018-08-18T01:38:18.442Z,1.1
2018-08-18T01:40:18.703Z,9.6
2018-08-18T01:42:18.499Z,0.9
2018-08-18T01:44:18.312Z,4.1
2018-08-18T01:46:18.359Z,3
2018-08-18T01:48:18.115Z,1.1
2018-08-18T01:50:17.881Z,3.6
2018-08-18T01:52:18.660Z,1.2
2018-08-18T01:54:18.429Z,1.4
2018-08-18T01:56:18.506Z,1.2
2018-08-18T01:58:18.332Z,1.6
2018-08-18T02:00:18.170Z,3.3
2018-08-18T02:02:17.964Z,3.6
2018-08-18T02:04:17.750Z,4.6
2018-08-18T02:06:17.835Z,2.8
2018-08-18T02:08:18.624Z,2.7
2018-08-18T02:10:17.867Z,1.8
2018-08-18T02:12:18.671Z,1
2018-08-18T02:14:18.494Z,1.2
2018-08-18T02:16:17.997Z,1.2
2018-08-18T02:18:17.875Z,4.6
2018-08-18T02:20:18.645Z,1.1
2018-08-18T02:22:18.469Z,1.2
2018-08-18T02:24:18.252Z,1.2
2018-08-18T02:26:18.269Z,0.8
2018-08-18T02:28:18.096Z,1.2
2018-08-18T02:30:17.916Z,3
2018-08-18T02:32:18.722Z,1.3
2018-08-18T02:34:18.521Z,1.6
2018-08-18T02:36:18.548Z,1
2018-08-18T02:38:18.308Z,4.8
2018-08-18T02:40:18.574Z,3
2018-08-18T02:42:18.343Z,3.4
2018-08-18T02:44:18.107Z,2.2
2018-08-18T02:46:18.683Z,0.7
2018-08-18T02:48:18.460Z,0.7
2018-08-18T02:50:18.233Z,0.9
2018-08-18T02:52:18.032Z,1.9
2018-08-18T02:54:17.801Z,11.8
2018-08-18T02:56:18.006Z,1.7
2018-08-18T02:58:17.843Z,2.3
2018-08-18T03:00:18.808Z,1.6
2018-08-18T03:02:18.609Z,1.1
2018-08-18T03:04:18.401Z,1.5
2018-08-18T03:06:17.952Z,2.1
2018-08-18T03:08:17.755Z,6.3
2018-08-18T03:10:18.092Z,1.9
2018-08-18T03:12:17.877Z,3.3
2018-08-18T03:14:18.674Z,0.6
2018-08-18T03:16:17.728Z,0.6
2018-08-18T03:18:18.627Z,6.1
2018-08-18T03:20:18.410Z,1.6
2018-08-18T03:22:18.181Z,2.5
2018-08-18T03:24:18.008Z,1
2018-08-18T03:26:18.153Z,0.8
2018-08-18T03:28:17.945Z,4.2
2018-08-18T03:30:17.753Z,2.7
2018-08-18T03:32:18.558Z,0.6
2018-08-18T03:34:18.391Z,0.8
2018-08-18T03:36:18.497Z,0.9
2018-08-18T03:38:18.306Z,0.7
2018-08-18T03:40:18.590Z,1.8
2018-08-18T03:42:18.387Z,2.1
2018-08-18T03:44:18.180Z,1.7
2018-08-18T03:46:17.805Z,1.9
2018-08-18T03:48:18.639Z,0.7
2018-08-18T03:50:18.434Z,2.6
2018-08-18T03:52:18.307Z,4.5
2018-08-18T03:54:18.162Z,1.6
2018-08-18T03:56:18.247Z,1
2018-08-18T03:58:18.037Z,3.3
2018-08-18T04:00:17.844Z,1.1
2018-08-18T04:02:18.650Z,1.8
2018-08-18T04:04:18.400Z,2.2
2018-08-18T04:06:18.163Z,3.6
2018-08-18T04:08:17.968Z,1.3
2018-08-18T04:10:18.314Z,1.9
2018-08-18T04:12:18.125Z,1.7
2018-08-18T04:14:17.914Z,1.6
2018-08-18T04:16:18.448Z,1.7
2018-08-18T04:18:18.336Z,2.1
2018-08-18T04:20:18.122Z,5.7
2018-08-18T04:22:17.945Z,2.9
2018-08-18T04:24:17.729Z,2
2018-08-18T04:26:18.319Z,1.7
2018-08-18T04:28:18.091Z,4.4
2018-08-18T04:30:17.866Z,1
2018-08-18T04:32:18.665Z,1.7
2018-08-18T04:34:18.488Z,4.9
2018-08-18T04:36:18.535Z,1.8
2018-08-18T04:38:18.371Z,1.1
2018-08-18T04:40:18.696Z,1.8
2018-08-18T04:42:18.499Z,1.5
2018-08-18T04:44:18.271Z,1.4
2018-08-18T04:46:18.363Z,1.2
2018-08-18T04:48:18.143Z,1.6
2018-08-18T04:50:17.968Z,2.8
2018-08-18T04:52:17.764Z,1.6
2018-08-18T04:54:18.624Z,3
2018-08-18T04:56:18.703Z,1.2
2018-08-18T04:58:18.523Z,3.4
2018-08-18T05:00:18.294Z,3.4
2018-08-18T05:02:18.068Z,10.5
2018-08-18T05:04:17.899Z,1.8
2018-08-18T05:06:18.467Z,4
2018-08-18T05:08:18.241Z,1.6
2018-08-18T05:10:18.487Z,1.9
2018-08-18T05:12:18.251Z,1.8
2018-08-18T05:14:18.007Z,2.8
2018-08-18T05:16:18.593Z,4.9
2018-08-18T05:18:18.459Z,3
2018-08-18T05:20:18.248Z,10.6
2018-08-18T05:22:18.067Z,4.3
2018-08-18T05:24:17.846Z,2.5
2018-08-18T05:26:18.474Z,5.4
2018-08-18T05:28:18.307Z,2.7
2018-08-18T05:30:18.121Z,4.8
2018-08-18T05:32:17.900Z,2.1
2018-08-18T05:34:18.715Z,2
2018-08-18T05:36:18.266Z,1.7
2018-08-18T05:38:18.058Z,5.9
2018-08-18T05:40:18.358Z,10.8
2018-08-18T05:42:18.146Z,1.1
2018-08-18T05:44:17.903Z,6.2
2018-08-18T05:46:18.007Z,1.1
2018-08-18T05:48:17.761Z,0.7
2018-08-18T05:50:18.572Z,2.5
2018-08-18T05:52:18.355Z,1.3
2018-08-18T05:54:18.147Z,3.7
2018-08-18T05:56:18.683Z,3.4
2018-08-18T05:58:18.474Z,4.2
2018-08-18T06:00:18.260Z,4.9
2018-08-18T06:02:18.075Z,1.3
2018-08-18T06:04:17.846Z,0.8
2018-08-18T06:06:18.385Z,1.1
2018-08-18T06:08:18.201Z,11.3
2018-08-18T06:10:18.489Z,2.4
2018-08-18T06:12:18.314Z,2.5
2018-08-18T06:14:18.116Z,7.9
2018-08-18T06:16:18.308Z,0.8
2018-08-18T06:18:18.188Z,0.9
2018-08-18T06:20:18.039Z,8.1
2018-08-18T06:22:17.814Z,2.8
2018-08-18T06:24:18.601Z,9.5
2018-08-18T06:26:17.829Z,1
2018-08-18T06:28:18.655Z,2
2018-08-18T06:30:18.464Z,6.7
2018-08-18T06:32:18.238Z,2
2018-08-18T06:34:18.007Z,5
2018-08-18T06:36:18.296Z,4.2
2018-08-18T06:38:18.066Z,14.2
2018-08-18T06:40:18.316Z,13.3
2018-08-18T06:42:18.137Z,6.2
2018-08-18T06:44:17.952Z,2.5
2018-08-18T06:46:18.488Z,2.7
2018-08-18T06:48:18.300Z,3.4
2018-08-18T06:50:18.118Z,2.2
2018-08-18T06:52:17.915Z,8.6
2018-08-18T06:54:18.838Z,0.5
2018-08-18T06:56:18.425Z,2.2
2018-08-18T06:58:18.197Z,3.6
2018-08-18T07:00:18.005Z,1.2
2018-08-18T07:02:17.800Z,0.8
2018-08-18T07:04:18.637Z,6.6
2018-08-18T07:06:17.817Z,9.5
2018-08-18T07:08:18.585Z,3.2
2018-08-18T07:10:17.892Z,3.8
2018-08-18T07:12:18.694Z,1.5
2018-08-18T07:14:18.450Z,2.6
2018-08-18T07:16:18.577Z,1.5
2018-08-18T07:18:18.439Z,2.9
2018-08-18T07:20:18.233Z,3.4
2018-08-18T07:22:18.041Z,0.9
2018-08-18T07:24:17.827Z,1
2018-08-18T07:26:18.336Z,2.1
2018-08-18T07:28:18.366Z,0.4
2018-08-18T07:30:18.258Z,4.5
2018-08-18T07:32:18.072Z,2.4
2018-08-18T07:34:17.860Z,4.2
2018-08-18T07:36:17.970Z,5.2
2018-08-18T07:38:17.756Z,6.8
2018-08-18T07:40:18.034Z,2.8
2018-08-18T07:42:17.814Z,4.2
2018-08-18T07:44:18.602Z,1.3
2018-08-18T07:46:17.867Z,2.2
2018-08-18T07:48:18.685Z,5.6
2018-08-18T07:50:18.499Z,2.2
2018-08-18T07:52:18.282Z,1.6
2018-08-18T07:54:18.052Z,5.4
2018-08-18T07:56:17.774Z,1.9
2018-08-18T07:58:18.577Z,3.3
2018-08-18T08:00:18.383Z,1.1
2018-08-18T08:02:18.225Z,3.6
2018-08-18T08:04:18.039Z,3.2
2018-08-18T08:06:17.847Z,0.7
2018-08-18T08:08:18.655Z,4.8
2018-08-18T08:10:17.924Z,1
2018-08-18T08:12:18.701Z,4
2018-08-18T08:14:18.531Z,6
2018-08-18T08:16:18.608Z,1.3
2018-08-18T08:18:18.745Z,0.9
2018-08-18T08:20:18.564Z,1.9
2018-08-18T08:22:18.365Z,6.3
2018-08-18T08:24:18.153Z,0.6
2018-08-18T08:26:18.276Z,3.3
2018-08-18T08:28:18.055Z,0.8
2018-08-18T08:30:17.903Z,1.7
2018-08-18T08:32:18.745Z,0.7
2018-08-18T08:34:18.558Z,11.8
2018-08-18T08:36:18.185Z,11.5
2018-08-18T08:38:17.959Z,3.4
2018-08-18T08:40:18.191Z,3.5
2018-08-18T08:42:17.991Z,6.1
2018-08-18T08:44:17.780Z,2.9
2018-08-18T08:46:17.900Z,5.5
2018-08-18T08:48:18.713Z,3.9
2018-08-18T08:50:18.496Z,1.7
2018-08-18T08:52:18.274Z,3.2
2018-08-18T08:54:18.079Z,5.8
2018-08-18T08:56:18.663Z,1.7
2018-08-18T08:58:18.469Z,1.7
2018-08-18T09:00:18.336Z,0.5
2018-08-18T09:02:18.112Z,2.4
2018-08-18T09:04:17.916Z,2.7
2018-08-18T09:06:17.987Z,2.3
2018-08-18T09:08:17.787Z,3.4
2018-08-18T09:10:18.211Z,3.6
2018-08-18T09:12:18.102Z,2.5
2018-08-18T09:14:17.882Z,1.8
2018-08-18T09:16:17.964Z,9.7
2018-08-18T09:18:17.817Z,9.6
2018-08-18T09:20:18.628Z,4.1
2018-08-18T09:22:18.417Z,2.7
2018-08-18T09:24:18.203Z,0.7
2018-08-18T09:26:18.792Z,2.1
2018-08-18T09:28:18.585Z,2.1
2018-08-18T09:30:18.496Z,6.7
2018-08-18T09:32:18.304Z,3.9
2018-08-18T09:34:18.106Z,1.3
2018-08-18T09:36:18.861Z,6.9
2018-08-18T09:38:17.705Z,1
2018-08-18T09:40:18.024Z,0.4
2018-08-18T09:42:17.811Z,6.3
2018-08-18T09:44:18.604Z,2.4
2018-08-18T09:46:18.283Z,1.5
2018-08-18T09:48:18.096Z,14.7
2018-08-18T09:50:17.905Z,3.7
2018-08-18T09:52:18.742Z,4.9
2018-08-18T09:54:18.553Z,1.7
2018-08-18T09:56:18.139Z,0.9
2018-08-18T09:58:18.000Z,1.6
2018-08-18T10:00:17.821Z,13
2018-08-18T10:02:18.628Z,5.4
2018-08-18T10:04:18.444Z,3.3
2018-08-18T10:06:18.617Z,5
2018-08-18T10:08:18.434Z,1.9
2018-08-18T10:10:18.680Z,2.2
2018-08-18T10:12:18.468Z,5.4
2018-08-18T10:14:18.256Z,2.1
2018-08-18T10:16:18.457Z,6.9
2018-08-18T10:18:18.371Z,1.5
2018-08-18T10:20:18.287Z,2.7
2018-08-18T10:22:18.127Z,3.9
2018-08-18T10:24:17.939Z,1.9
2018-08-18T10:26:18.019Z,4
2018-08-18T10:28:17.818Z,8.6
2018-08-18T10:30:18.591Z,2.3
2018-08-18T10:32:18.416Z,0.7
2018-08-18T10:34:18.191Z,38.1
2018-08-18T10:36:18.261Z,2.1
2018-08-18T10:38:18.117Z,3
2018-08-18T10:40:18.405Z,6.4
2018-08-18T10:42:18.202Z,2.6
2018-08-18T10:44:18.030Z,5.6
2018-08-18T10:46:18.325Z,5.2
2018-08-18T10:48:18.139Z,1.8
2018-08-18T10:50:17.981Z,1.6
2018-08-18T10:52:17.814Z,2.4
2018-08-18T10:54:18.673Z,1.5
2018-08-18T10:56:18.218Z,9.7
2018-08-18T10:58:18.020Z,1.7
2018-08-18T11:00:17.920Z,4
2018-08-18T11:02:18.712Z,1.9
2018-08-18T11:04:18.522Z,1.7
2018-08-18T11:06:18.711Z,6.1
2018-08-18T11:08:18.518Z,2.2
2018-08-18T11:10:17.801Z,10.8
2018-08-18T11:12:18.581Z,0.5
2018-08-18T11:14:18.388Z,1
2018-08-18T11:16:17.977Z,2
2018-08-18T11:18:17.857Z,2.7
2018-08-18T11:20:18.795Z,3.3
2018-08-18T11:22:18.594Z,1.5
2018-08-18T11:24:18.418Z,14.2
2018-08-18T11:26:18.588Z,11.4
2018-08-18T11:28:18.492Z,5.2
2018-08-18T11:30:18.353Z,4
2018-08-18T11:32:18.129Z,0.9
2018-08-18T11:34:17.923Z,1.7
2018-08-18T11:36:17.827Z,2.6
2018-08-18T11:38:18.606Z,4.8
2018-08-18T11:40:17.867Z,7.9
2018-08-18T11:42:18.675Z,7.6
2018-08-18T11:44:18.507Z,4.6
2018-08-18T11:46:18.678Z,2.6
2018-08-18T11:48:18.508Z,3
2018-08-18T11:50:18.356Z,3.1
2018-08-18T11:52:18.140Z,2.6
2018-08-18T11:54:17.984Z,0.6
2018-08-18T11:56:18.542Z,1.1
2018-08-18T11:58:18.333Z,2
2018-08-18T12:00:18.126Z,5.5
2018-08-18T12:02:17.901Z,2.8
2018-08-18T12:04:18.720Z,5
2018-08-18T12:06:17.824Z,9.1
2018-08-18T12:08:18.633Z,7.5
2018-08-18T12:10:17.925Z,3.9
2018-08-18T12:12:18.768Z,2.1
2018-08-18T12:14:18.574Z,1.1
2018-08-18T12:16:18.656Z,6
2018-08-18T12:18:18.544Z,6.7
2018-08-18T12:20:18.420Z,3.3
2018-08-18T12:22:18.210Z,1.4
2018-08-18T12:24:18.004Z,2.3
2018-08-18T12:26:18.548Z,0.6
2018-08-18T12:28:18.378Z,5.3
2018-08-18T12:30:18.178Z,3.4
2018-08-18T12:32:17.980Z,1.2
2018-08-18T12:34:17.829Z,2.5
2018-08-18T12:36:18.564Z,1.2
2018-08-18T12:38:18.431Z,1.4
2018-08-18T12:40:18.723Z,6.8
2018-08-18T12:42:18.511Z,1.1
2018-08-18T12:44:18.376Z,2.7
2018-08-18T12:46:17.926Z,4.6
2018-08-18T12:48:18.700Z,1.8
2018-08-18T12:50:18.597Z,5.9
2018-08-18T12:52:18.507Z,2.3
2018-08-18T12:54:18.317Z,2.5
2018-08-18T12:56:18.399Z,2.9
2018-08-18T12:58:18.463Z,1.1
2018-08-18T13:00:18.288Z,2.5
2018-08-18T13:02:18.082Z,2
2018-08-18T13:04:17.967Z,2
2018-08-18T13:06:18.694Z,0.9
2018-08-18T13:08:18.523Z,4.4
2018-08-18T13:10:17.864Z,8.4
2018-08-18T13:12:18.676Z,2.7
2018-08-18T13:14:18.530Z,2.5
2018-08-18T13:16:18.088Z,4.8
2018-08-18T13:18:17.986Z,3.1
2018-08-18T13:20:17.797Z,2.3
2018-08-18T13:22:18.598Z,1.2
2018-08-18T13:24:18.541Z,4
2018-08-18T13:26:18.186Z,12.8
2018-08-18T13:28:18.000Z,14.2
2018-08-18T13:30:17.809Z,4.3
2018-08-18T13:32:18.606Z,1.1
2018-08-18T13:34:18.409Z,9.1
2018-08-18T13:36:18.516Z,1.1
2018-08-18T13:38:18.324Z,5.3
2018-08-18T13:40:18.714Z,1.9
2018-08-18T13:42:18.546Z,1.5
2018-08-18T13:44:18.356Z,2.5
2018-08-18T13:46:18.582Z,4.1
2018-08-18T13:48:18.397Z,2.8
2018-08-18T13:50:18.286Z,1.5
2018-08-18T13:52:18.112Z,1.4
2018-08-18T13:54:17.940Z,1
2018-08-18T13:56:18.568Z,2.7
2018-08-18T13:58:18.381Z,6.5
2018-08-18T14:00:18.248Z,2.7
2018-08-18T14:02:18.042Z,1.7
2018-08-18T14:04:17.996Z,3.4
2018-08-18T14:06:18.099Z,1.8
2018-08-18T14:08:17.916Z,2.5
2018-08-18T14:10:18.160Z,2.1
2018-08-18T14:12:17.949Z,1.6
2018-08-18T14:14:17.766Z,5
2018-08-18T14:16:17.894Z,2.5
2018-08-18T14:18:17.792Z,2.8
2018-08-18T14:20:18.808Z,3.8
2018-08-18T14:22:18.596Z,4
2018-08-18T14:24:18.417Z,1.8
2018-08-18T14:26:18.497Z,5.6
2018-08-18T14:28:18.407Z,0.7
2018-08-18T14:30:18.213Z,2.4
2018-08-18T14:32:18.067Z,17.6
2018-08-18T14:34:18.495Z,11
2018-08-18T14:36:17.768Z,6.2
2018-08-18T14:38:18.604Z,4.8
2018-08-18T14:40:17.919Z,5
2018-08-18T14:42:18.740Z,3.6
2018-08-18T14:44:18.592Z,1.8
2018-08-18T14:46:18.284Z,1.8
2018-08-18T14:48:18.148Z,0.9
2018-08-18T14:50:17.968Z,0.8
2018-08-18T14:52:17.755Z,2
2018-08-18T14:54:19.055Z,7
2018-08-18T14:56:18.517Z,10
2018-08-18T14:58:18.350Z,1.6
2018-08-18T15:00:18.170Z,3.1
2018-08-18T15:02:17.970Z,5.2
2018-08-18T15:04:17.961Z,2.6
2018-08-18T15:06:18.085Z,4.4
2018-08-18T15:08:17.863Z,2.1
2018-08-18T15:10:18.164Z,3.2
2018-08-18T15:12:17.993Z,5.9
2018-08-18T15:14:17.851Z,1.3
2018-08-18T15:16:18.421Z,3.1
2018-08-18T15:18:18.312Z,2.2
2018-08-18T15:20:18.158Z,4.4
2018-08-18T15:22:17.946Z,1.5
2018-08-18T15:24:17.754Z,2.3
2018-08-18T15:26:18.406Z,1.8
2018-08-18T15:28:18.214Z,1.4
2018-08-18T15:30:18.036Z,5.1
2018-08-18T15:32:17.890Z,5.1
2018-08-18T15:34:18.693Z,1.7
2018-08-18T15:36:17.807Z,4.4
2018-08-18T15:38:18.928Z,1
2018-08-18T15:40:18.397Z,2.2
2018-08-18T15:42:18.216Z,2.3
2018-08-18T15:44:18.076Z,1.4
2018-08-18T15:46:18.656Z,0.7
2018-08-18T15:48:18.479Z,8.6
2018-08-18T15:50:18.413Z,3.7
2018-08-18T15:52:17.907Z,1.8
2018-08-18T15:54:18.900Z,1
2018-08-18T15:56:18.148Z,2.4
2018-08-18T15:58:17.949Z,6.3
2018-08-18T16:00:17.744Z,4.1
2018-08-18T16:02:18.571Z,1.2
2018-08-18T16:04:18.395Z,1.7
2018-08-18T16:06:18.689Z,3.1
2018-08-18T16:08:18.512Z,1.2
2018-08-18T16:10:17.819Z,2.4
2018-08-18T16:12:18.656Z,0.9
2018-08-18T16:14:18.497Z,5
2018-08-18T16:16:18.065Z,2.1
2018-08-18T16:18:17.985Z,2.1
2018-08-18T16:20:17.816Z,1.9
2018-08-18T16:22:18.652Z,4.7
2018-08-18T16:24:18.610Z,3.6
2018-08-18T16:26:18.281Z,3.3
2018-08-18T16:28:18.114Z,2.9
2018-08-18T16:30:17.922Z,1.9
2018-08-18T16:32:18.736Z,2.2
2018-08-18T16:34:18.656Z,1.7
2018-08-18T16:36:18.253Z,2.4
2018-08-18T16:38:18.125Z,3.4
2018-08-18T16:40:18.399Z,3.6
2018-08-18T16:42:18.234Z,5.6
2018-08-18T16:44:18.034Z,2
2018-08-18T16:46:18.598Z,12.2
2018-08-18T16:48:18.416Z,1
2018-08-18T16:50:18.244Z,8.2
2018-08-18T16:52:18.066Z,6.8
2018-08-18T16:54:17.900Z,1.5
2018-08-18T16:56:18.147Z,1.5
2018-08-18T16:58:17.963Z,9.1
2018-08-18T17:00:17.790Z,1.5
2018-08-18T17:02:18.632Z,1.8
2018-08-18T17:04:18.471Z,3
2018-08-18T17:06:18.581Z,2.9
2018-08-18T17:08:18.397Z,5.6
2018-08-18T17:10:18.822Z,1.3
2018-08-18T17:12:18.621Z,2.1
2018-08-18T17:14:18.428Z,2.2
2018-08-18T17:16:18.577Z,2.6
2018-08-18T17:18:18.447Z,1.5
2018-08-18T17:20:18.326Z,6.7
2018-08-18T17:22:18.117Z,1.6
2018-08-18T17:24:17.920Z,14
2018-08-18T17:26:18.601Z,3.8
2018-08-18T17:28:18.411Z,3.3
2018-08-18T17:30:18.585Z,2.2
2018-08-18T17:32:18.500Z,4.8
2018-08-18T17:34:18.314Z,8.2
2018-08-18T17:36:17.887Z,1.6
2018-08-18T17:38:18.703Z,5
2018-08-18T17:40:18.017Z,4.5
2018-08-18T17:42:17.832Z,6.8
2018-08-18T17:44:18.655Z,2.5
2018-08-18T17:46:17.759Z,2.4
2018-08-18T17:48:18.547Z,2.1
2018-08-18T17:50:18.386Z,3
2018-08-18T17:52:18.192Z,1.8
2018-08-18T17:54:17.997Z,3.1
2018-08-18T17:56:18.135Z,5.8
2018-08-18T17:58:17.944Z,1.4
2018-08-18T18:00:18.139Z,2.5
2018-08-18T18:02:18.067Z,3.6
2018-08-18T18:04:17.858Z,2.2
2018-08-18T18:06:18.017Z,2
2018-08-18T18:08:17.817Z,9.5
2018-08-18T18:10:18.120Z,3
2018-08-18T18:12:17.984Z,1.7
2018-08-18T18:14:17.777Z,6.7
2018-08-18T18:16:17.991Z,6.5
2018-08-18T18:18:17.894Z,1.2
2018-08-18T18:20:18.788Z,1.3
2018-08-18T18:22:18.566Z,1.9
2018-08-18T18:24:18.446Z,1.6
2018-08-18T18:26:18.052Z,4.1
2018-08-18T18:28:17.859Z,2.7
2018-08-18T18:30:18.660Z,3.9
2018-08-18T18:32:18.450Z,3.2
2018-08-18T18:34:18.242Z,3.9
2018-08-18T18:36:18.369Z,3.7
2018-08-18T18:38:18.144Z,3.8
2018-08-18T18:40:18.486Z,5.5
2018-08-18T18:42:18.283Z,10.1
2018-08-18T18:44:18.142Z,6.1
2018-08-18T18:46:18.722Z,4.2
2018-08-18T18:48:18.520Z,2.7
2018-08-18T18:50:18.335Z,6.8
2018-08-18T18:52:18.158Z,4
2018-08-18T18:54:18.023Z,3.6
2018-08-18T18:56:18.564Z,3.2
2018-08-18T18:58:18.387Z,8.3
2018-08-18T19:00:18.261Z,5.2
2018-08-18T19:02:18.051Z,5.2
2018-08-18T19:04:17.844Z,4.7
2018-08-18T19:06:18.021Z,16.1
2018-08-18T19:08:17.818Z,6.6
2018-08-18T19:10:18.093Z,11.6
2018-08-18T19:12:17.970Z,5
2018-08-18T19:14:17.775Z,5.4
2018-08-18T19:16:18.518Z,6.6
2018-08-18T19:18:18.484Z,7.4
2018-08-18T19:20:18.289Z,5.3
2018-08-18T19:22:18.106Z,4.5
2018-08-18T19:24:17.929Z,14.7
2018-08-18T19:26:18.049Z,7
2018-08-18T19:28:17.839Z,4.8
2018-08-18T19:30:18.626Z,5.2
2018-08-18T19:32:18.460Z,2.7
2018-08-18T19:34:18.306Z,7.9
2018-08-18T19:36:17.915Z,12.9
2018-08-18T19:38:18.738Z,11.6
2018-08-18T19:40:17.968Z,4
2018-08-18T19:42:17.770Z,3.6
2018-08-18T19:44:18.603Z,19.1
2018-08-18T19:46:18.194Z,12.3
2018-08-18T19:48:18.003Z,7.5
2018-08-18T19:50:17.807Z,4.2
2018-08-18T19:52:18.599Z,10.4
2018-08-18T19:54:18.395Z,5.8
2018-08-18T19:56:17.949Z,5.8
2018-08-18T19:58:17.725Z,3.7
2018-08-18T20:00:18.537Z,7.2
2018-08-18T20:02:18.400Z,32.7
2018-08-18T20:04:18.207Z,48.5
2018-08-18T20:06:17.732Z,56.1
2018-08-18T20:08:18.535Z,48
2018-08-18T20:10:17.808Z,45.9
2018-08-18T20:12:18.641Z,30.2
2018-08-18T20:14:18.435Z,22.8
2018-08-18T20:16:18.048Z,12.4
2018-08-18T20:18:17.928Z,15.9
2018-08-18T20:20:18.748Z,14.7
2018-08-18T20:22:18.565Z,18.2
2018-08-18T20:24:18.355Z,10.4
2018-08-18T20:26:18.432Z,9
2018-08-18T20:28:18.269Z,18.4
2018-08-18T20:30:18.079Z,8.5
2018-08-18T20:32:17.860Z,12
2018-08-18T20:34:18.700Z,8
2018-08-18T20:36:18.295Z,26.1
2018-08-18T20:38:18.081Z,12
2018-08-18T20:40:18.491Z,10
2018-08-18T20:42:18.296Z,6.7
2018-08-18T20:44:18.105Z,9.9
2018-08-18T20:46:18.633Z,9
2018-08-18T20:48:18.521Z,17.3
2018-08-18T20:50:18.355Z,10.4
2018-08-18T20:52:18.140Z,11.6
2018-08-18T20:54:17.920Z,10.6
2018-08-18T20:56:18.050Z,14.4
2018-08-18T20:58:17.835Z,13.3
2018-08-18T21:00:18.882Z,16
2018-08-18T21:02:17.775Z,12.8
2018-08-18T21:04:18.562Z,14
2018-08-18T21:06:18.692Z,11.6
2018-08-18T21:08:18.508Z,13.6
2018-08-18T21:10:17.773Z,7.6
2018-08-18T21:12:17.950Z,19.4
2018-08-18T21:14:17.772Z,14.5
2018-08-18T21:16:17.869Z,22.3
2018-08-18T21:18:17.721Z,41.5
2018-08-18T21:20:18.516Z,40.7
2018-08-18T21:22:18.352Z,44.5
2018-08-18T21:24:18.166Z,57
2018-08-18T21:26:18.799Z,52.9
2018-08-18T21:28:18.597Z,53.9
2018-08-18T21:30:18.372Z,93.1
2018-08-18T21:32:18.151Z,93.2
2018-08-18T21:34:17.926Z,73.3
2018-08-18T21:36:18.704Z,46.5
2018-08-18T21:38:18.612Z,28.5
2018-08-18T21:40:17.883Z,20.6
2018-08-18T21:42:18.710Z,21.4
2018-08-18T21:44:18.515Z,10.1
2018-08-18T21:46:18.032Z,14.6
2018-08-18T21:48:17.885Z,12.3
2018-08-18T21:50:17.734Z,15
2018-08-18T21:52:18.538Z,16
2018-08-18T21:54:18.376Z,22.8
2018-08-18T21:56:17.927Z,14.8
2018-08-18T21:58:18.717Z,10.6
2018-08-18T22:00:18.503Z,16.1
2018-08-18T22:02:18.306Z,14.5
2018-08-18T22:04:18.099Z,11.9
2018-08-18T22:06:18.195Z,12.7
2018-08-18T22:08:18.018Z,15.2
2018-08-18T22:10:18.312Z,15.6
2018-08-18T22:12:18.108Z,8.6
2018-08-18T22:14:17.950Z,9.5
2018-08-18T22:16:18.526Z,15.1
2018-08-18T22:18:18.394Z,15.4
2018-08-18T22:20:18.197Z,13.3
2018-08-18T22:22:18.005Z,12.2
2018-08-18T22:24:17.788Z,13.6
2018-08-18T22:26:17.929Z,16.2
2018-08-18T22:28:18.714Z,20
2018-08-18T22:30:18.517Z,13.3
2018-08-18T22:32:18.342Z,12.1
2018-08-18T22:34:18.120Z,9.8
2018-08-18T22:36:18.200Z,9.2
2018-08-18T22:38:17.994Z,7
2018-08-18T22:40:18.301Z,11.5
2018-08-18T22:42:18.141Z,18.4
2018-08-18T22:44:17.946Z,14
2018-08-18T22:46:18.495Z,9.3
2018-08-18T22:48:18.304Z,10
2018-08-18T22:50:18.099Z,16.3
2018-08-18T22:52:17.933Z,11.2
2018-08-18T22:54:17.724Z,6.7
2018-08-18T22:56:18.325Z,7.9
2018-08-18T22:58:18.156Z,5.7
2018-08-18T23:00:17.935Z,10.7
2018-08-18T23:02:17.721Z,7.6
2018-08-18T23:04:18.525Z,9.6
2018-08-18T23:06:18.320Z,10.6
2018-08-18T23:08:18.192Z,10.7
2018-08-18T23:10:18.448Z,7.1
2018-08-18T23:12:18.254Z,10.7
2018-08-18T23:14:18.032Z,6.6
2018-08-18T23:16:18.109Z,9.3
2018-08-18T23:18:18.001Z,8.2
2018-08-18T23:20:17.875Z,8.1
2018-08-18T23:22:18.363Z,7.6
2018-08-18T23:24:18.131Z,4.8
2018-08-18T23:26:18.236Z,6.2
2018-08-18T23:28:18.056Z,5.4
2018-08-18T23:30:17.857Z,6.4
2018-08-18T23:32:18.649Z,10.7
2018-08-18T23:34:18.530Z,4.7
2018-08-18T23:36:18.190Z,11.9
2018-08-18T23:38:18.015Z,5.4
2018-08-18T23:40:18.267Z,5.8
2018-08-18T23:42:18.061Z,13.5
2018-08-18T23:44:17.860Z,7.3
2018-08-18T23:46:18.409Z,15.5
2018-08-18T23:48:18.213Z,6.4
2018-08-18T23:50:18.004Z,5.7
2018-08-18T23:52:17.799Z,9
2018-08-18T23:54:18.591Z,9.9
2018-08-18T23:56:18.687Z,3.7
2018-08-18T23:58:18.479Z,4.2
